createdAt,value
2022-10-30T00:01:15.126Z,40.10
2022-10-30T00:03:42.330Z,26.60
2022-10-30T00:06:10.275Z,23.53
2022-10-30T00:08:37.537Z,23.97
2022-10-30T00:11:14.196Z,24.50
2022-10-30T00:13:44.805Z,22.63
2022-10-30T00:16:12.818Z,28.13
2022-10-30T00:18:42.422Z,26.47
2022-10-30T00:21:12.558Z,28.17
2022-10-30T00:23:41.395Z,24.50
2022-10-30T00:26:08.944Z,25.03
2022-10-30T00:28:36.204Z,24.77
2022-10-30T00:31:04.888Z,22.00
2022-10-30T00:33:32.539Z,22.67
2022-10-30T00:36:00.025Z,21.57
2022-10-30T00:38:27.355Z,22.87
2022-10-30T00:40:54.781Z,21.07
2022-10-30T00:43:29.669Z,21.70
2022-10-30T00:45:59.867Z,23.07
2022-10-30T00:48:30.242Z,23.57
2022-10-30T00:51:00.015Z,22.53
2022-10-30T00:53:28.177Z,25.87
2022-10-30T00:55:59.506Z,22.60
2022-10-30T00:58:50.110Z,21.70
2022-10-30T01:01:21.697Z,22.33
2022-10-30T01:03:53.032Z,21.73
2022-10-30T01:06:20.424Z,20.83
2022-10-30T01:08:48.561Z,21.27
2022-10-30T01:11:16.018Z,21.70
2022-10-30T01:13:47.670Z,20.53
2022-10-30T01:16:26.603Z,21.23
2022-10-30T01:19:13.813Z,21.23
2022-10-30T01:22:02.137Z,21.37
2022-10-30T01:24:49.618Z,21.23
2022-10-30T01:27:20.270Z,19.67
2022-10-30T01:30:17.481Z,19.73
2022-10-30T01:33:14.168Z,22.03
2022-10-30T01:35:48.162Z,22.63
2022-10-30T01:38:21.845Z,19.90
2022-10-30T01:40:48.966Z,20.43
2022-10-30T01:43:16.349Z,21.10
2022-10-30T01:46:04.871Z,20.60
2022-10-30T01:49:06.870Z,20.53
2022-10-30T01:51:39.694Z,21.70
2022-10-30T01:54:40.409Z,23.63
2022-10-30T01:57:52.111Z,22.50
2022-10-30T02:00:20.882Z,22.47
2022-10-30T02:02:50.424Z,23.63
2022-10-30T02:05:36.870Z,23.23
2022-10-30T02:08:04.361Z,23.20
2022-10-30T02:10:34.325Z,22.77
2022-10-30T02:13:02.506Z,22.30
2022-10-30T02:15:31.023Z,22.83
2022-10-30T02:17:58.770Z,22.07
2022-10-30T02:20:27.122Z,24.30
2022-10-30T02:22:59.061Z,25.27
2022-10-30T02:25:27.130Z,23.00
2022-10-30T02:27:54.365Z,24.77
2022-10-30T02:30:21.626Z,23.23
2022-10-30T02:32:49.070Z,22.90
2022-10-30T02:35:16.312Z,25.53
2022-10-30T02:37:43.603Z,24.20
2022-10-30T02:40:12.291Z,23.27
2022-10-30T02:42:39.719Z,21.73
2022-10-30T02:45:07.526Z,21.20
2022-10-30T02:47:34.767Z,21.07
2022-10-30T02:50:01.864Z,22.17
2022-10-30T02:52:29.035Z,20.97
2022-10-30T02:54:56.209Z,20.57
2022-10-30T02:57:23.365Z,21.47
2022-10-30T02:59:50.712Z,20.73
2022-10-30T03:02:17.896Z,21.00
2022-10-30T03:04:45.071Z,22.07
2022-10-30T03:07:12.261Z,22.73
2022-10-30T03:09:39.464Z,24.23
2022-10-30T03:12:06.903Z,23.80
2022-10-30T03:14:34.320Z,23.93
2022-10-30T03:17:01.736Z,22.80
2022-10-30T03:19:28.845Z,22.43
2022-10-30T03:21:56.196Z,21.93
2022-10-30T03:24:23.390Z,23.83
2022-10-30T03:26:50.563Z,23.73
2022-10-30T03:29:17.844Z,24.37
2022-10-30T03:31:44.976Z,22.53
2022-10-30T03:34:12.378Z,23.87
2022-10-30T03:36:39.733Z,27.40
2022-10-30T03:39:07.060Z,34.50
2022-10-30T03:41:34.549Z,36.43
2022-10-30T03:44:01.996Z,27.43
2022-10-30T03:46:31.059Z,28.30
2022-10-30T03:48:58.394Z,27.33
2022-10-30T03:51:25.685Z,38.13
2022-10-30T03:53:52.933Z,26.03
2022-10-30T03:56:20.200Z,23.17
2022-10-30T03:58:47.297Z,24.67
2022-10-30T04:01:14.506Z,22.70
2022-10-30T04:03:41.952Z,29.67
2022-10-30T04:06:10.284Z,26.43
2022-10-30T04:08:37.712Z,23.50
2022-10-30T04:11:05.277Z,47.93
2022-10-30T04:13:32.663Z,39.47
2022-10-30T04:15:59.917Z,35.37
2022-10-30T04:18:27.255Z,36.13
2022-10-30T04:20:54.534Z,30.50
2022-10-30T04:23:23.091Z,29.50
2022-10-30T04:25:50.366Z,27.87
2022-10-30T04:28:17.600Z,33.43
2022-10-30T04:30:47.245Z,57.67
2022-10-30T04:33:15.302Z,63.90
2022-10-30T04:35:42.937Z,65.03
2022-10-30T04:38:21.693Z,40.97
2022-10-30T04:40:49.119Z,39.40
2022-10-30T04:43:17.317Z,42.23
2022-10-30T04:45:45.333Z,33.83
2022-10-30T04:48:16.323Z,28.20
2022-10-30T04:50:44.169Z,24.67
2022-10-30T04:53:17.288Z,31.63
2022-10-30T04:55:44.887Z,28.37
2022-10-30T04:58:13.130Z,31.27
2022-10-30T05:00:40.650Z,38.97
2022-10-30T05:03:08.095Z,32.80
2022-10-30T05:05:35.378Z,25.50
2022-10-30T05:08:03.252Z,23.47
2022-10-30T05:10:30.574Z,24.83
2022-10-30T05:13:00.334Z,29.50
2022-10-30T05:15:27.534Z,26.60
2022-10-30T05:17:55.799Z,27.20
2022-10-30T05:20:23.225Z,25.00
2022-10-30T05:23:00.196Z,27.53
2022-10-30T05:25:28.458Z,25.83
2022-10-30T05:28:04.046Z,27.83
2022-10-30T05:30:33.598Z,23.10
2022-10-30T05:33:10.320Z,21.77
2022-10-30T05:35:38.305Z,22.63
2022-10-30T05:38:07.540Z,26.00
2022-10-30T05:40:36.089Z,25.27
2022-10-30T05:43:03.312Z,27.27
2022-10-30T05:45:30.636Z,29.60
2022-10-30T05:48:03.361Z,22.67
2022-10-30T05:50:31.326Z,21.37
2022-10-30T05:53:03.678Z,20.10
2022-10-30T05:55:31.517Z,19.33
2022-10-30T05:58:00.895Z,19.53
2022-10-30T06:00:31.689Z,19.40
2022-10-30T06:03:04.390Z,19.70
2022-10-30T06:05:34.563Z,25.53
2022-10-30T06:08:03.215Z,21.33
2022-10-30T06:10:30.613Z,21.23
2022-10-30T06:13:00.516Z,19.60
2022-10-30T06:15:29.380Z,19.47
2022-10-30T06:17:57.146Z,18.23
2022-10-30T06:20:27.204Z,19.23
2022-10-30T06:22:58.003Z,18.87
2022-10-30T06:25:26.245Z,18.40
2022-10-30T06:27:53.518Z,18.30
2022-10-30T06:30:22.078Z,18.70
2022-10-30T06:32:50.617Z,18.40
2022-10-30T06:35:18.411Z,17.50
2022-10-30T06:37:49.630Z,18.80
2022-10-30T06:40:17.725Z,20.33
2022-10-30T06:42:50.921Z,17.73
2022-10-30T06:45:19.717Z,18.43
2022-10-30T06:47:47.740Z,17.17
2022-10-30T06:50:18.140Z,16.00
2022-10-30T06:52:45.473Z,15.10
2022-10-30T06:55:13.056Z,15.43
2022-10-30T06:57:40.611Z,15.50
2022-10-30T07:00:09.144Z,15.83
2022-10-30T07:02:36.364Z,16.77
2022-10-30T07:05:03.780Z,14.27
2022-10-30T07:07:31.499Z,14.67
2022-10-30T07:10:02.079Z,14.87
2022-10-30T07:12:29.317Z,14.40
2022-10-30T07:14:56.660Z,13.83
2022-10-30T07:17:24.020Z,13.93
2022-10-30T07:19:51.551Z,14.60
2022-10-30T07:22:18.927Z,15.27
2022-10-30T07:24:46.057Z,14.37
2022-10-30T07:27:28.629Z,14.03
2022-10-30T07:29:55.861Z,15.57
2022-10-30T07:32:23.126Z,17.20
2022-10-30T07:34:50.582Z,14.67
2022-10-30T07:37:17.973Z,13.40
2022-10-30T07:39:45.286Z,14.53
2022-10-30T07:42:12.770Z,15.63
2022-10-30T07:44:40.037Z,14.13
2022-10-30T07:47:07.570Z,14.00
2022-10-30T07:49:37.960Z,13.37
2022-10-30T07:52:06.306Z,12.87
2022-10-30T07:54:33.927Z,14.23
2022-10-30T07:57:01.488Z,19.97
2022-10-30T07:59:28.986Z,15.53
2022-10-30T08:01:56.497Z,13.53
2022-10-30T08:04:24.003Z,16.67
2022-10-30T08:06:51.314Z,21.00
2022-10-30T08:09:21.345Z,11.07
2022-10-30T08:11:49.292Z,9.43
2022-10-30T08:14:20.169Z,12.50
2022-10-30T08:16:48.674Z,9.30
2022-10-30T08:19:16.002Z,9.47
2022-10-30T08:21:43.938Z,9.33
2022-10-30T08:24:11.785Z,11.97
2022-10-30T08:26:39.189Z,8.20
2022-10-30T08:29:06.920Z,7.90
2022-10-30T08:31:34.189Z,7.70
2022-10-30T08:34:01.602Z,7.23
2022-10-30T08:36:30.004Z,6.37
2022-10-30T08:38:58.875Z,8.13
2022-10-30T08:41:26.166Z,14.27
2022-10-30T08:43:53.922Z,6.83
2022-10-30T08:46:21.221Z,7.80
2022-10-30T08:48:48.751Z,6.70
2022-10-30T08:51:16.177Z,7.37
2022-10-30T08:53:43.549Z,5.73
2022-10-30T08:56:13.917Z,5.57
2022-10-30T08:58:41.191Z,6.15
2022-10-30T09:01:08.680Z,8.05
2022-10-30T09:03:37.440Z,6.90
2022-10-30T09:06:05.108Z,5.05
2022-10-30T09:08:32.685Z,6.30
2022-10-30T09:11:00.219Z,4.97
2022-10-30T09:13:28.230Z,6.57
2022-10-30T09:15:59.637Z,5.50
2022-10-30T09:18:27.272Z,6.57
2022-10-30T09:20:54.815Z,5.15
2022-10-30T09:23:22.643Z,5.05
2022-10-30T09:25:49.989Z,5.20
2022-10-30T09:28:17.351Z,5.38
2022-10-30T09:30:45.315Z,21.05
2022-10-30T09:33:12.881Z,4.65
2022-10-30T09:35:40.340Z,5.43
2022-10-30T09:38:07.574Z,4.97
2022-10-30T09:40:55.242Z,6.85
2022-10-30T09:43:44.762Z,5.57
2022-10-30T09:46:31.511Z,4.40
2022-10-30T09:49:02.003Z,4.80
2022-10-30T09:51:56.298Z,5.55
2022-10-30T09:54:50.823Z,5.25
2022-10-30T09:57:33.922Z,5.70
2022-10-30T10:00:07.329Z,4.88
2022-10-30T10:02:37.542Z,5.68
2022-10-30T10:05:14.893Z,6.25
2022-10-30T10:07:52.209Z,6.07
2022-10-30T10:10:52.780Z,5.45
2022-10-30T10:13:42.569Z,4.40
2022-10-30T10:16:27.257Z,4.72
2022-10-30T10:19:01.374Z,4.03
2022-10-30T10:21:30.119Z,4.15
2022-10-30T10:24:01.278Z,3.83
2022-10-30T10:26:55.122Z,4.80
2022-10-30T10:29:41.501Z,4.13
2022-10-30T10:32:57.871Z,4.28
2022-10-30T10:35:44.037Z,4.38
2022-10-30T10:38:38.805Z,5.05
2022-10-30T10:41:31.878Z,5.07
2022-10-30T10:44:28.422Z,4.95
2022-10-30T10:47:09.108Z,5.35
2022-10-30T10:50:09.941Z,5.25
2022-10-30T10:52:52.090Z,5.50
2022-10-30T10:55:26.835Z,5.45
2022-10-30T10:57:59.152Z,5.43
2022-10-30T11:00:30.042Z,5.93
2022-10-30T11:03:10.539Z,5.32
2022-10-30T11:06:07.522Z,8.45
2022-10-30T11:08:38.285Z,8.75
2022-10-30T11:11:07.586Z,5.78
2022-10-30T11:13:43.797Z,4.95
2022-10-30T11:16:29.721Z,5.28
2022-10-30T11:19:04.233Z,4.72
2022-10-30T11:21:38.801Z,4.32
2022-10-30T11:24:26.038Z,4.80
2022-10-30T11:26:55.603Z,5.22
2022-10-30T11:29:31.905Z,5.45
2022-10-30T11:32:04.713Z,4.80
2022-10-30T11:34:33.444Z,5.40
2022-10-30T11:37:01.086Z,4.85
2022-10-30T11:39:33.776Z,4.35
2022-10-30T11:42:04.966Z,5.85
2022-10-30T11:44:44.318Z,4.43
2022-10-30T11:47:13.556Z,5.07
2022-10-30T11:49:45.144Z,4.45
2022-10-30T11:52:17.283Z,4.03
2022-10-30T11:54:48.793Z,3.80
2022-10-30T11:57:25.081Z,4.18
2022-10-30T12:00:05.551Z,4.03
2022-10-30T12:02:45.322Z,3.70
2022-10-30T12:05:32.345Z,4.25
2022-10-30T12:08:08.830Z,4.97
2022-10-30T12:10:55.425Z,4.05
2022-10-30T12:13:24.740Z,4.25
2022-10-30T12:16:20.154Z,3.70
2022-10-30T12:19:00.720Z,3.72
2022-10-30T12:21:35.032Z,3.63
2022-10-30T12:24:10.446Z,4.18
2022-10-30T12:26:45.366Z,3.65
2022-10-30T12:29:36.453Z,3.53
2022-10-30T12:32:23.636Z,3.88
2022-10-30T12:35:36.980Z,3.58
2022-10-30T12:38:14.044Z,3.92
2022-10-30T12:41:03.767Z,4.13
2022-10-30T12:43:35.460Z,3.55
2022-10-30T12:46:28.212Z,4.13
2022-10-30T12:49:23.043Z,3.50
2022-10-30T12:52:15.677Z,3.70
2022-10-30T12:55:00.221Z,3.50
2022-10-30T12:57:42.544Z,3.53
2022-10-30T13:00:18.667Z,3.75
2022-10-30T13:02:51.492Z,4.32
2022-10-30T13:05:46.872Z,4.78
2022-10-30T13:08:19.952Z,3.85
2022-10-30T13:10:53.048Z,4.55
2022-10-30T13:13:29.872Z,4.20
2022-10-30T13:16:01.375Z,4.35
2022-10-30T13:18:33.334Z,4.55
2022-10-30T13:21:25.228Z,4.88
2022-10-30T13:23:58.364Z,3.33
2022-10-30T13:26:39.376Z,4.00
2022-10-30T13:29:12.990Z,4.18
2022-10-30T13:32:05.720Z,3.58
2022-10-30T13:34:52.811Z,3.90
2022-10-30T13:37:47.409Z,3.95
2022-10-30T13:40:41.713Z,3.70
2022-10-30T13:43:43.167Z,4.18
2022-10-30T13:46:19.468Z,3.55
2022-10-30T13:49:31.734Z,4.65
2022-10-30T13:52:21.099Z,3.80
2022-10-30T13:55:08.396Z,3.60
2022-10-30T13:57:47.768Z,4.13
2022-10-30T14:00:20.822Z,3.90
2022-10-30T14:03:23.638Z,4.60
2022-10-30T14:06:22.820Z,3.90
2022-10-30T14:08:56.239Z,4.47
2022-10-30T14:11:28.325Z,4.10
2022-10-30T14:14:28.505Z,3.60
2022-10-30T14:17:16.350Z,4.30
2022-10-30T14:20:13.556Z,3.92
2022-10-30T14:22:42.114Z,4.78
2022-10-30T14:25:17.023Z,4.38
2022-10-30T14:27:55.708Z,5.10
2022-10-30T14:30:23.417Z,5.13
2022-10-30T14:32:54.273Z,8.10
2022-10-30T14:35:41.002Z,8.23
2022-10-30T14:38:11.693Z,14.20
2022-10-30T14:41:02.717Z,21.98
2022-10-30T14:43:51.136Z,23.05
2022-10-30T14:46:42.970Z,23.23
2022-10-30T14:49:39.520Z,39.42
2022-10-30T14:52:44.171Z,21.13
2022-10-30T14:55:35.786Z,18.42
2022-10-30T14:58:03.433Z,16.88
2022-10-30T15:00:45.709Z,13.88
2022-10-30T15:03:16.263Z,17.85
2022-10-30T15:06:04.084Z,19.33
2022-10-30T15:08:47.522Z,12.23
2022-10-30T15:11:24.529Z,14.27
2022-10-30T15:14:00.158Z,39.30
2022-10-30T15:16:30.749Z,32.10
2022-10-30T15:19:06.346Z,35.13
2022-10-30T15:21:41.999Z,14.73
2022-10-30T15:24:19.263Z,21.48
2022-10-30T15:26:53.389Z,22.40
2022-10-30T15:29:29.255Z,30.47
2022-10-30T15:31:59.958Z,11.53
2022-10-30T15:34:34.148Z,7.13
2022-10-30T15:37:16.819Z,7.50
2022-10-30T15:39:44.881Z,6.20
2022-10-30T15:42:13.747Z,7.50
2022-10-30T15:44:44.485Z,7.17
2022-10-30T15:47:21.452Z,8.60
2022-10-30T15:49:52.596Z,9.33
2022-10-30T15:52:31.098Z,12.00
2022-10-30T15:55:02.060Z,10.67
2022-10-30T15:58:03.561Z,10.03
2022-10-30T16:00:36.522Z,8.40
2022-10-30T16:03:17.167Z,7.87
2022-10-30T16:05:44.833Z,6.77
2022-10-30T16:08:21.241Z,8.03
2022-10-30T16:10:52.531Z,6.23
2022-10-30T16:13:25.796Z,7.87
2022-10-30T16:15:55.449Z,13.10
2022-10-30T16:18:36.156Z,12.17
2022-10-30T16:21:07.780Z,8.93
2022-10-30T16:23:46.814Z,12.23
2022-10-30T16:26:40.397Z,17.17
2022-10-30T16:29:13.713Z,19.27
2022-10-30T16:31:43.748Z,18.90
2022-10-30T16:34:18.372Z,16.80
2022-10-30T16:36:46.069Z,20.73
2022-10-30T16:39:17.627Z,33.47
2022-10-30T16:41:46.280Z,53.43
2022-10-30T16:44:14.509Z,44.37
2022-10-30T16:46:52.898Z,38.23
2022-10-30T16:49:24.388Z,29.47
2022-10-30T16:52:06.724Z,31.13
2022-10-30T16:54:38.478Z,30.03
2022-10-30T16:57:27.782Z,29.73
2022-10-30T16:59:58.107Z,30.13
2022-10-30T17:02:32.843Z,29.40
2022-10-30T17:05:31.253Z,48.67
2022-10-30T17:08:02.188Z,50.57
2022-10-30T17:10:37.592Z,42.47
2022-10-30T17:13:56.205Z,28.37
2022-10-30T17:16:26.116Z,23.63
2022-10-30T17:18:55.396Z,21.87
2022-10-30T17:21:29.537Z,18.37
2022-10-30T17:24:00.803Z,18.70
2022-10-30T17:26:32.426Z,22.00
2022-10-30T17:28:59.808Z,20.23
2022-10-30T17:31:39.425Z,19.20
2022-10-30T17:34:21.393Z,32.60
2022-10-30T17:37:01.800Z,24.97
2022-10-30T17:39:35.135Z,22.50
2022-10-30T17:42:16.004Z,20.17
2022-10-30T17:44:46.494Z,32.97
2022-10-30T17:47:19.633Z,25.63
2022-10-30T17:49:53.035Z,27.53
2022-10-30T17:52:25.023Z,38.20
2022-10-30T17:54:53.832Z,38.80
2022-10-30T17:57:28.170Z,30.57
2022-10-30T18:00:02.441Z,32.27
2022-10-30T18:02:32.578Z,35.27
2022-10-30T18:05:00.583Z,30.37
2022-10-30T18:07:28.310Z,29.93
2022-10-30T18:09:55.822Z,31.73
2022-10-30T18:12:28.259Z,29.43
2022-10-30T18:15:00.825Z,28.03
2022-10-30T18:17:31.473Z,27.17
2022-10-30T18:20:02.195Z,25.17
2022-10-30T18:22:29.551Z,21.93
2022-10-30T18:24:56.963Z,20.47
2022-10-30T18:27:27.158Z,20.07
2022-10-30T18:29:54.819Z,21.27
2022-10-30T18:32:26.327Z,17.10
2022-10-30T18:34:56.955Z,15.00
2022-10-30T18:37:25.181Z,14.90
2022-10-30T18:39:55.771Z,24.77
2022-10-30T18:42:26.369Z,26.00
2022-10-30T18:44:53.834Z,29.63
2022-10-30T18:47:21.981Z,26.07
2022-10-30T18:49:50.488Z,22.53
2022-10-30T18:52:17.914Z,22.70
2022-10-30T18:54:45.636Z,22.97
2022-10-30T18:57:13.719Z,21.93
2022-10-30T18:59:41.433Z,20.67
2022-10-30T19:02:25.067Z,21.43
2022-10-30T19:04:52.728Z,21.53
2022-10-30T19:07:20.638Z,20.23
2022-10-30T19:09:51.698Z,18.10
2022-10-30T19:12:19.659Z,19.10
2022-10-30T19:14:49.921Z,22.33
2022-10-30T19:17:17.678Z,20.33
2022-10-30T19:19:45.231Z,22.83
2022-10-30T19:22:19.102Z,23.23
2022-10-30T19:24:46.769Z,22.77
2022-10-30T19:27:15.041Z,22.97
2022-10-30T19:29:42.661Z,23.87
2022-10-30T19:32:10.644Z,20.67
2022-10-30T19:34:38.464Z,23.60
2022-10-30T19:37:06.323Z,20.47
2022-10-30T19:39:34.091Z,20.03
2022-10-30T19:42:01.991Z,24.33
2022-10-30T19:44:29.727Z,24.13
2022-10-30T19:46:57.093Z,26.40
2022-10-30T19:49:25.136Z,24.73
2022-10-30T19:51:52.687Z,22.27
2022-10-30T19:54:20.083Z,23.50
2022-10-30T19:56:47.564Z,23.77
2022-10-30T19:59:16.007Z,24.00
2022-10-30T20:01:45.072Z,24.23
2022-10-30T20:04:13.069Z,26.97
2022-10-30T20:06:40.304Z,26.47
2022-10-30T20:09:11.888Z,27.93
2022-10-30T20:11:39.234Z,28.17
2022-10-30T20:14:06.491Z,25.90
2022-10-30T20:16:35.458Z,21.87
2022-10-30T20:19:04.499Z,17.57
2022-10-30T20:21:31.755Z,15.17
2022-10-30T20:23:59.119Z,12.63
2022-10-30T20:26:29.827Z,19.30
2022-10-30T20:28:57.739Z,14.40
2022-10-30T20:31:25.143Z,10.63
2022-10-30T20:33:52.357Z,11.20
2022-10-30T20:36:19.635Z,12.40
2022-10-30T20:38:47.286Z,9.13
2022-10-30T20:41:23.905Z,9.60
2022-10-30T20:43:51.828Z,10.07
2022-10-30T20:46:19.683Z,12.87
2022-10-30T20:48:47.693Z,12.03
2022-10-30T20:51:15.261Z,14.47
2022-10-30T20:53:42.634Z,10.50
2022-10-30T20:56:11.527Z,8.20
2022-10-30T20:58:39.166Z,8.20
2022-10-30T21:01:06.754Z,8.37
2022-10-30T21:03:34.304Z,8.57
2022-10-30T21:06:02.405Z,9.40
2022-10-30T21:08:34.614Z,12.27
2022-10-30T21:11:04.445Z,15.93
2022-10-30T21:13:34.421Z,14.60
2022-10-30T21:16:04.355Z,14.83
2022-10-30T21:18:32.852Z,15.97
2022-10-30T21:21:08.708Z,18.73
2022-10-30T21:23:36.062Z,14.63
2022-10-30T21:26:10.004Z,21.27
2022-10-30T21:28:37.486Z,14.67
2022-10-30T21:31:08.037Z,13.50
2022-10-30T21:33:38.598Z,14.77
2022-10-30T21:36:14.898Z,13.90
2022-10-30T21:38:43.811Z,14.40
2022-10-30T21:41:16.684Z,14.43
2022-10-30T21:43:48.913Z,14.40
2022-10-30T21:46:16.213Z,13.93
2022-10-30T21:48:43.731Z,14.27
2022-10-30T21:51:14.926Z,14.53
2022-10-30T21:53:43.335Z,14.13
2022-10-30T21:56:13.385Z,14.97
2022-10-30T21:58:41.458Z,17.20
2022-10-30T22:01:15.570Z,23.20
2022-10-30T22:03:43.441Z,17.87
2022-10-30T22:06:13.271Z,19.10
2022-10-30T22:08:41.193Z,16.93
2022-10-30T22:11:10.986Z,16.43
2022-10-30T22:13:38.850Z,17.43
2022-10-30T22:16:08.499Z,17.20
2022-10-30T22:18:36.072Z,17.40
2022-10-30T22:21:06.817Z,17.13
2022-10-30T22:23:36.204Z,17.40
2022-10-30T22:26:07.050Z,18.00
2022-10-30T22:28:35.588Z,17.10
2022-10-30T22:31:08.016Z,18.20
2022-10-30T22:33:35.887Z,18.07
2022-10-30T22:36:13.198Z,16.87
2022-10-30T22:38:40.551Z,14.83
2022-10-30T22:41:12.007Z,15.37
2022-10-30T22:43:40.842Z,17.07
2022-10-30T22:46:08.557Z,18.10
2022-10-30T22:48:35.906Z,18.33
2022-10-30T22:51:07.091Z,17.67
2022-10-30T22:53:37.947Z,18.17
2022-10-30T22:56:32.530Z,15.87
2022-10-30T22:59:10.308Z,16.70
2022-10-30T23:01:39.499Z,16.00
2022-10-30T23:04:07.955Z,19.10
2022-10-30T23:06:36.284Z,20.27
2022-10-30T23:09:07.631Z,20.43
2022-10-30T23:11:35.399Z,19.60
2022-10-30T23:14:03.091Z,16.13
2022-10-30T23:16:30.610Z,15.80
2022-10-30T23:18:59.873Z,16.93
2022-10-30T23:21:31.723Z,18.07
2022-10-30T23:24:00.057Z,20.13
2022-10-30T23:26:30.907Z,18.47
2022-10-30T23:29:00.232Z,18.07
2022-10-30T23:31:53.603Z,17.10
2022-10-30T23:34:21.069Z,15.97
2022-10-30T23:36:48.471Z,18.13
2022-10-30T23:39:17.938Z,18.37
2022-10-30T23:41:45.642Z,18.03
2022-10-30T23:44:14.946Z,17.87
2022-10-30T23:46:42.394Z,18.50
2022-10-30T23:49:09.706Z,17.53
2022-10-30T23:51:36.967Z,20.13
2022-10-30T23:54:04.375Z,20.30
2022-10-30T23:56:31.851Z,21.50
2022-10-30T23:58:59.126Z,21.20
